createdAt,value
2018-09-04T00:01:06.305Z,14.10
2018-09-04T00:03:35.513Z,13.80
2018-09-04T00:06:04.670Z,13.50
2018-09-04T00:08:33.775Z,13.60
2018-09-04T00:11:02.937Z,13.80
2018-09-04T00:13:32.054Z,13.90
2018-09-04T00:16:05.762Z,13.80
2018-09-04T00:18:34.991Z,13.70
2018-09-04T00:21:04.390Z,13.50
2018-09-04T00:23:33.562Z,13.40
2018-09-04T00:26:05.901Z,13.50
2018-09-04T00:28:35.098Z,13.70
2018-09-04T00:31:04.490Z,13.70
2018-09-04T00:33:33.737Z,13.70
2018-09-04T00:36:02.939Z,13.70
2018-09-04T00:38:32.081Z,13.60
2018-09-04T00:41:01.235Z,13.60
2018-09-04T00:43:30.391Z,13.70
2018-09-04T00:45:59.511Z,13.60
2018-09-04T00:48:28.644Z,13.40
2018-09-04T00:50:57.780Z,13.20
2018-09-04T00:53:27.034Z,13.20
2018-09-04T00:55:56.161Z,13.20
2018-09-04T00:58:25.289Z,13.10
2018-09-04T01:00:54.426Z,12.90
2018-09-04T01:03:23.587Z,12.70
2018-09-04T01:05:52.765Z,12.90
2018-09-04T01:08:22.139Z,12.70
2018-09-04T01:10:51.306Z,12.60
2018-09-04T01:13:20.546Z,12.60
2018-09-04T01:15:49.762Z,12.50
2018-09-04T01:18:19.685Z,12.60
2018-09-04T01:20:48.843Z,12.70
2018-09-04T01:23:18.066Z,12.70
2018-09-04T01:25:47.193Z,12.60
2018-09-04T01:28:16.323Z,12.50
2018-09-04T01:30:45.493Z,12.50
2018-09-04T01:33:14.835Z,12.50
2018-09-04T01:35:44.111Z,12.50
2018-09-04T01:40:49.353Z,12.30
2018-09-04T01:43:18.562Z,12.40
2018-09-04T01:45:47.768Z,12.40
2018-09-04T01:48:16.911Z,12.20
2018-09-04T01:50:46.127Z,12.20
2018-09-04T01:53:15.714Z,12.10
2018-09-04T01:55:44.842Z,12.20
2018-09-04T01:58:14.001Z,12.20
2018-09-04T02:00:43.134Z,12.20
2018-09-04T02:03:12.339Z,12.20
2018-09-04T02:05:41.515Z,12.20
2018-09-04T02:08:10.653Z,12.20
2018-09-04T02:10:39.822Z,12.30
2018-09-04T02:13:09.020Z,12.20
2018-09-04T02:15:38.201Z,12.00
2018-09-04T02:18:07.394Z,12.00
2018-09-04T02:20:36.551Z,12.00
2018-09-04T02:23:05.794Z,12.10
2018-09-04T02:25:34.953Z,12.00
2018-09-04T02:28:04.129Z,12.00
2018-09-04T02:30:33.381Z,12.00
2018-09-04T02:33:02.704Z,12.00
2018-09-04T02:35:31.869Z,12.10
2018-09-04T02:38:01.016Z,12.10
2018-09-04T02:40:30.182Z,12.20
2018-09-04T02:42:59.313Z,12.00
2018-09-04T02:45:28.438Z,11.90
2018-09-04T02:47:57.603Z,11.80
2018-09-04T02:50:26.759Z,11.80
2018-09-04T02:52:55.961Z,11.90
2018-09-04T02:55:25.121Z,12.10
2018-09-04T02:57:54.241Z,12.10
2018-09-04T03:00:24.186Z,12.30
2018-09-04T03:02:53.329Z,12.30
2018-09-04T03:05:22.473Z,12.30
2018-09-04T03:07:52.014Z,12.20
2018-09-04T03:10:21.175Z,12.10
2018-09-04T03:12:50.301Z,12.00
2018-09-04T03:15:19.437Z,12.10
2018-09-04T03:17:49.257Z,12.20
2018-09-04T03:20:19.962Z,12.10
2018-09-04T03:22:49.427Z,12.10
2018-09-04T03:25:18.495Z,12.00
2018-09-04T03:27:47.697Z,11.90
2018-09-04T03:30:16.933Z,11.70
2018-09-04T03:32:46.254Z,11.70
2018-09-04T03:35:16.392Z,11.90
2018-09-04T03:37:46.117Z,11.90
2018-09-04T03:40:15.286Z,11.90
2018-09-04T03:42:44.457Z,12.10
2018-09-04T03:45:13.583Z,12.00
2018-09-04T03:47:42.732Z,12.00
2018-09-04T03:50:11.921Z,12.10
2018-09-04T03:52:41.731Z,12.20
2018-09-04T03:55:10.989Z,12.20
2018-09-04T03:57:40.140Z,12.20
2018-09-04T04:00:09.306Z,12.20
2018-09-04T04:02:38.413Z,12.10
2018-09-04T04:05:07.929Z,12.10
2018-09-04T04:07:37.157Z,12.10
2018-09-04T04:10:06.341Z,12.00
2018-09-04T04:12:39.148Z,12.20
2018-09-04T04:15:08.295Z,12.30
2018-09-04T04:17:37.422Z,12.40
2018-09-04T04:20:06.579Z,12.50
2018-09-04T04:22:35.730Z,12.50
2018-09-04T04:25:04.873Z,12.60
2018-09-04T04:27:34.023Z,12.60
2018-09-04T04:30:03.190Z,12.60
2018-09-04T04:32:32.334Z,12.50
2018-09-04T04:35:02.118Z,12.60
2018-09-04T04:37:31.274Z,12.60
2018-09-04T04:40:00.422Z,12.70
2018-09-04T04:42:29.765Z,12.80
2018-09-04T04:44:58.901Z,12.90
2018-09-04T04:47:33.385Z,13.00
2018-09-04T04:50:03.318Z,12.90
2018-09-04T04:52:33.022Z,12.80
2018-09-04T04:55:02.341Z,12.90
2018-09-04T04:57:32.274Z,13.00
2018-09-04T05:00:01.569Z,13.10
2018-09-04T05:02:30.890Z,13.10
2018-09-04T05:05:00.257Z,13.10
2018-09-04T05:07:30.086Z,13.10
2018-09-04T05:09:58.953Z,13.10
2018-09-04T05:12:28.354Z,13.00
2018-09-04T05:14:57.474Z,13.00
2018-09-04T05:17:26.650Z,13.00
2018-09-04T05:19:55.818Z,13.00
2018-09-04T05:22:25.556Z,13.10
2018-09-04T05:24:54.870Z,13.10
2018-09-04T05:27:24.149Z,13.00
2018-09-04T05:29:53.482Z,13.10
2018-09-04T05:34:29.966Z,13.40
2018-09-04T05:36:59.122Z,13.50
2018-09-04T05:39:28.237Z,13.60
2018-09-04T05:42:01.450Z,13.70
2018-09-04T05:44:31.081Z,13.80
2018-09-04T05:47:00.209Z,13.80
2018-09-04T05:49:32.719Z,13.80
2018-09-04T05:52:02.431Z,13.90
2018-09-04T05:54:31.585Z,13.80
2018-09-04T05:57:01.513Z,13.80
2018-09-04T05:59:30.611Z,13.80
2018-09-04T06:01:59.716Z,13.90
2018-09-04T06:04:29.571Z,14.10
2018-09-04T06:06:58.682Z,14.20
2018-09-04T06:09:27.825Z,14.30
2018-09-04T06:11:56.967Z,14.40
2018-09-04T06:14:26.130Z,14.30
2018-09-04T06:16:55.268Z,14.40
2018-09-04T06:19:24.414Z,14.60
2018-09-04T06:21:53.562Z,14.90
2018-09-04T06:24:22.698Z,15.00
2018-09-04T06:26:51.835Z,15.20
2018-09-04T06:29:21.095Z,15.40
2018-09-04T06:31:50.190Z,15.40
2018-09-04T06:34:19.341Z,15.40
2018-09-04T06:36:48.579Z,15.50
2018-09-04T06:39:17.615Z,15.50
2018-09-04T06:41:46.737Z,15.50
2018-09-04T06:44:15.906Z,15.70
2018-09-04T06:46:45.043Z,15.60
2018-09-04T06:49:14.152Z,15.60
2018-09-04T06:51:43.268Z,15.90
2018-09-04T06:54:13.254Z,16.00
2018-09-04T06:56:42.922Z,16.10
2018-09-04T06:59:12.143Z,16.30
2018-09-04T07:01:41.635Z,16.50
2018-09-04T07:04:10.774Z,16.60
2018-09-04T07:06:39.950Z,16.30
2018-09-04T07:09:11.747Z,16.70
2018-09-04T07:11:41.265Z,16.90
2018-09-04T07:14:10.424Z,16.80
2018-09-04T07:16:40.085Z,17.00
2018-09-04T07:19:09.510Z,17.30
2018-09-04T07:21:38.659Z,17.70
2018-09-04T07:24:07.773Z,18.00
2018-09-04T07:26:36.931Z,18.40
2018-09-04T07:29:06.114Z,18.90
2018-09-04T07:31:35.246Z,19.20
2018-09-04T07:34:04.365Z,19.50
2018-09-04T07:36:33.537Z,19.90
2018-09-04T07:39:04.012Z,19.70
2018-09-04T07:41:33.167Z,19.40
2018-09-04T07:44:02.298Z,19.50
2018-09-04T07:46:31.518Z,20.00
2018-09-04T07:49:00.631Z,20.50
2018-09-04T07:51:29.915Z,20.80
2018-09-04T07:53:59.162Z,21.10
2018-09-04T07:56:28.343Z,21.40
2018-09-04T07:58:57.521Z,21.00
2018-09-04T08:01:26.929Z,20.50
2018-09-04T08:03:56.554Z,20.80
2018-09-04T08:06:25.826Z,21.00
2018-09-04T08:08:55.097Z,21.70
2018-09-04T08:11:24.345Z,22.30
2018-09-04T08:13:53.481Z,22.80
2018-09-04T08:16:22.800Z,23.70
2018-09-04T08:18:51.885Z,23.30
2018-09-04T08:21:21.005Z,23.80
2018-09-04T08:23:50.293Z,24.10
2018-09-04T08:26:19.427Z,24.00
2018-09-04T08:28:48.542Z,23.60
2018-09-04T08:31:17.662Z,23.30
2018-09-04T08:33:46.793Z,22.80
2018-09-04T08:36:15.920Z,23.30
2018-09-04T08:38:49.088Z,23.40
2018-09-04T08:41:18.444Z,23.10
2018-09-04T08:43:48.086Z,22.80
2018-09-04T08:46:17.575Z,23.40
2018-09-04T08:48:46.765Z,24.80
2018-09-04T08:51:15.909Z,25.90
2018-09-04T08:53:45.182Z,27.50
2018-09-04T08:56:14.318Z,28.30
2018-09-04T08:58:43.537Z,28.50
2018-09-04T09:01:12.622Z,28.60
2018-09-04T09:03:41.784Z,29.30
2018-09-04T09:06:10.869Z,29.60
2018-09-04T09:08:40.042Z,30.00
2018-09-04T09:11:09.180Z,29.60
2018-09-04T09:13:38.310Z,29.40
2018-09-04T09:16:07.608Z,29.30
2018-09-04T09:18:36.688Z,30.90
2018-09-04T09:21:12.513Z,30.60
2018-09-04T09:23:41.690Z,29.20
2018-09-04T09:26:10.818Z,28.90
2018-09-04T09:28:39.981Z,31.30
2018-09-04T09:31:09.126Z,32.30
2018-09-04T09:33:38.243Z,31.60
2018-09-04T09:36:07.376Z,31.40
2018-09-04T09:38:36.690Z,30.70
2018-09-04T09:41:06.049Z,31.00
2018-09-04T09:43:35.197Z,29.20
2018-09-04T09:46:04.351Z,30.10
2018-09-04T09:48:38.657Z,31.10
2018-09-04T09:51:07.970Z,32.30
2018-09-04T09:53:37.330Z,31.00
2018-09-04T09:56:06.844Z,28.30
2018-09-04T09:58:35.968Z,26.80
2018-09-04T10:01:11.560Z,25.10
2018-09-04T10:04:14.905Z,25.30
2018-09-04T10:06:43.969Z,27.50
2018-09-04T10:09:13.110Z,28.40
2018-09-04T10:11:42.234Z,28.70
2018-09-04T10:14:11.407Z,29.80
2018-09-04T10:16:40.618Z,27.00
2018-09-04T10:19:09.971Z,26.70
2018-09-04T10:21:45.826Z,26.80
2018-09-04T10:24:14.949Z,27.20
2018-09-04T10:26:44.093Z,28.80
2018-09-04T10:29:13.249Z,29.40
2018-09-04T10:31:42.407Z,28.10
2018-09-04T10:34:14.448Z,28.80
2018-09-04T10:36:44.014Z,29.90
2018-09-04T10:39:18.340Z,30.20
2018-09-04T10:41:47.471Z,29.90
2018-09-04T10:44:16.645Z,28.30
2018-09-04T10:46:45.738Z,28.80
2018-09-04T10:49:14.851Z,29.30
2018-09-04T10:51:44.026Z,28.60
2018-09-04T10:54:13.194Z,28.60
2018-09-04T10:56:42.303Z,28.10
2018-09-04T10:59:11.426Z,27.20
2018-09-04T11:01:40.967Z,26.50
2018-09-04T11:04:10.126Z,26.00
2018-09-04T11:06:39.252Z,26.70
2018-09-04T11:09:10.694Z,26.30
2018-09-04T11:11:41.791Z,26.70
2018-09-04T11:14:11.245Z,27.50
2018-09-04T11:16:40.383Z,27.40
2018-09-04T11:19:09.466Z,27.60
2018-09-04T11:21:38.686Z,26.90
2018-09-04T11:24:07.913Z,26.50
2018-09-04T11:26:37.546Z,25.80
2018-09-04T11:29:09.095Z,26.60
2018-09-04T11:31:38.338Z,25.80
2018-09-04T11:34:08.345Z,26.60
2018-09-04T11:36:37.540Z,27.70
2018-09-04T11:39:09.859Z,27.40
2018-09-04T11:41:39.587Z,25.60
2018-09-04T11:44:14.898Z,24.30
2018-09-04T11:46:44.206Z,24.40
2018-09-04T11:49:13.445Z,25.50
2018-09-04T11:51:42.626Z,25.40
2018-09-04T11:54:11.746Z,25.90
2018-09-04T11:56:41.419Z,26.30
2018-09-04T11:59:11.274Z,26.20
2018-09-04T12:01:43.913Z,26.10
2018-09-04T12:04:13.581Z,26.90
2018-09-04T12:06:42.780Z,28.00
2018-09-04T12:09:11.893Z,28.80
2018-09-04T12:11:41.022Z,29.30
2018-09-04T12:14:10.182Z,29.50
2018-09-04T12:16:39.347Z,29.80
2018-09-04T12:19:08.481Z,29.90
2018-09-04T12:21:37.598Z,28.10
2018-09-04T12:24:06.332Z,26.30
2018-09-04T12:26:35.448Z,25.10
2018-09-04T12:29:04.613Z,25.40
2018-09-04T12:31:33.867Z,25.40
2018-09-04T12:34:03.042Z,25.20
2018-09-04T12:36:32.170Z,26.00
2018-09-04T12:39:01.349Z,26.50
2018-09-04T12:41:30.537Z,25.90
2018-09-04T12:43:59.765Z,25.50
2018-09-04T12:46:31.339Z,25.30
2018-09-04T12:49:00.537Z,26.20
2018-09-04T12:51:29.721Z,25.80
2018-09-04T12:53:58.809Z,26.40
2018-09-04T12:56:28.002Z,26.20
2018-09-04T12:58:57.186Z,26.20
2018-09-04T13:01:26.347Z,26.70
2018-09-04T13:03:55.491Z,27.60
2018-09-04T13:06:24.615Z,27.70
2018-09-04T13:08:54.514Z,27.10
2018-09-04T13:11:23.614Z,27.40
2018-09-04T13:13:52.917Z,27.20
2018-09-04T13:16:22.042Z,27.30
2018-09-04T13:18:51.214Z,28.70
2018-09-04T13:21:22.696Z,29.90
2018-09-04T13:23:51.857Z,30.50
2018-09-04T13:26:21.142Z,29.30
2018-09-04T13:28:50.371Z,29.80
2018-09-04T13:31:19.594Z,30.30
2018-09-04T13:33:48.854Z,30.30
2018-09-04T13:36:18.061Z,30.30
2018-09-04T13:38:47.266Z,30.50
2018-09-04T13:41:16.817Z,31.10
2018-09-04T13:43:46.613Z,29.50
2018-09-04T13:46:15.825Z,29.90
2018-09-04T13:48:45.722Z,28.10
2018-09-04T13:51:15.641Z,27.60
2018-09-04T13:53:44.733Z,29.80
2018-09-04T13:56:13.847Z,31.40
2018-09-04T13:58:43.002Z,31.50
2018-09-04T14:01:12.124Z,31.90
2018-09-04T14:03:41.247Z,32.40
2018-09-04T14:06:11.034Z,30.30
2018-09-04T14:08:40.186Z,31.70
2018-09-04T14:11:09.345Z,33.70
2018-09-04T14:13:38.442Z,33.60
2018-09-04T14:16:09.397Z,31.30
2018-09-04T14:18:38.533Z,29.90
2018-09-04T14:21:07.870Z,31.00
2018-09-04T14:23:36.974Z,31.60
2018-09-04T14:26:06.434Z,31.30
2018-09-04T14:28:42.718Z,31.40
2018-09-04T14:31:05.038Z,31.50
2018-09-04T14:33:34.228Z,30.70
2018-09-04T14:36:03.432Z,28.10
2018-09-04T14:38:32.545Z,26.40
2018-09-04T14:41:01.749Z,26.80
2018-09-04T14:43:30.887Z,27.50
2018-09-04T14:46:00.001Z,27.70
2018-09-04T14:48:29.152Z,28.00
2018-09-04T14:50:58.272Z,28.30
2018-09-04T14:53:27.487Z,28.10
2018-09-04T14:55:57.026Z,27.30
2018-09-04T14:58:26.160Z,26.60
2018-09-04T15:00:55.322Z,26.50
2018-09-04T15:03:24.711Z,26.30
2018-09-04T15:05:53.837Z,26.00
2018-09-04T15:08:23.209Z,25.60
2018-09-04T15:10:52.366Z,26.30
2018-09-04T15:13:21.490Z,27.80
2018-09-04T15:15:50.648Z,29.10
2018-09-04T15:18:21.121Z,28.80
2018-09-04T15:20:50.239Z,29.00
2018-09-04T15:23:48.757Z,29.80
2018-09-04T15:26:17.890Z,30.30
2018-09-04T15:28:47.045Z,29.90
2018-09-04T15:31:16.237Z,30.80
2018-09-04T15:33:45.362Z,31.20
2018-09-04T15:36:14.721Z,31.90
2018-09-04T15:38:43.850Z,31.70
2018-09-04T15:41:12.962Z,29.40
2018-09-04T15:43:42.138Z,29.50
2018-09-04T15:46:11.621Z,29.90
2018-09-04T15:48:40.761Z,30.00
2018-09-04T15:51:10.765Z,30.20
2018-09-04T15:53:39.886Z,30.30
2018-09-04T15:56:09.022Z,30.20
2018-09-04T15:58:38.134Z,29.50
2018-09-04T16:01:07.380Z,29.20
2018-09-04T16:03:36.537Z,29.60
2018-09-04T16:06:05.703Z,29.50
2018-09-04T16:08:35.127Z,29.10
2018-09-04T16:11:04.276Z,29.20
2018-09-04T16:13:33.402Z,28.80
2018-09-04T16:16:02.584Z,29.30
2018-09-04T16:18:32.450Z,29.00
2018-09-04T16:21:01.566Z,28.80
2018-09-04T16:23:30.681Z,28.40
2018-09-04T16:26:00.590Z,28.20
2018-09-04T16:28:29.781Z,28.30
2018-09-04T16:30:58.925Z,27.90
2018-09-04T16:33:28.394Z,27.50
2018-09-04T16:35:57.518Z,27.20
2018-09-04T16:38:26.687Z,26.80
2018-09-04T16:40:55.846Z,27.10
2018-09-04T16:43:24.973Z,26.70
2018-09-04T16:45:54.129Z,26.50
2018-09-04T16:48:23.271Z,26.20
2018-09-04T16:50:52.390Z,26.00
2018-09-04T16:53:21.554Z,25.60
2018-09-04T16:55:54.442Z,25.30
2018-09-04T16:58:24.296Z,25.00
2018-09-04T17:00:52.981Z,24.90
2018-09-04T17:03:22.754Z,24.70
2018-09-04T17:05:52.382Z,24.30
2018-09-04T17:08:21.501Z,24.10
2018-09-04T17:10:50.643Z,24.10
2018-09-04T17:13:19.789Z,23.90
2018-09-04T17:15:54.786Z,23.70
2018-09-04T17:18:24.141Z,23.50
2018-09-04T17:20:54.573Z,23.30
2018-09-04T17:23:23.813Z,23.10
2018-09-04T17:25:52.973Z,23.10
2018-09-04T17:28:22.101Z,23.00
2018-09-04T17:30:51.234Z,22.80
2018-09-04T17:33:20.443Z,22.80
2018-09-04T17:35:49.658Z,22.50
2018-09-04T17:38:18.853Z,22.40
2018-09-04T17:40:47.942Z,22.30
2018-09-04T17:43:17.250Z,22.30
2018-09-04T17:45:46.405Z,22.30
2018-09-04T17:48:15.523Z,22.20
2018-09-04T17:50:44.668Z,22.10
2018-09-04T17:53:13.800Z,22.00
2018-09-04T17:55:42.949Z,21.70
2018-09-04T17:58:12.085Z,21.60
2018-09-04T18:00:41.742Z,21.40
2018-09-04T18:03:10.801Z,21.30
2018-09-04T18:05:40.321Z,21.30
2018-09-04T18:08:10.659Z,21.20
2018-09-04T18:10:40.663Z,21.10
2018-09-04T18:13:09.767Z,21.10
2018-09-04T18:15:40.345Z,21.00
2018-09-04T18:18:11.173Z,21.00
2018-09-04T18:20:40.331Z,21.10
2018-09-04T18:23:11.038Z,21.10
2018-09-04T18:25:40.470Z,20.80
2018-09-04T18:28:09.590Z,20.40
2018-09-04T18:30:39.081Z,20.30
2018-09-04T18:33:09.671Z,20.10
2018-09-04T18:35:38.794Z,19.90
2018-09-04T18:38:09.045Z,19.80
2018-09-04T18:40:38.305Z,19.70
2018-09-04T18:43:07.424Z,19.60
2018-09-04T18:45:48.701Z,19.50
2018-09-04T18:48:18.186Z,19.40
2018-09-04T18:50:47.338Z,19.30
2018-09-04T18:53:16.582Z,19.30
2018-09-04T18:55:45.706Z,19.30
2018-09-04T18:58:15.377Z,19.30
2018-09-04T19:00:44.829Z,19.20
2018-09-04T19:03:15.174Z,19.30
2018-09-04T19:05:50.179Z,19.40
2018-09-04T19:08:24.438Z,19.50
2018-09-04T19:10:55.032Z,19.60
2018-09-04T19:13:24.154Z,19.70
2018-09-04T19:15:53.303Z,19.80
2018-09-04T19:18:23.385Z,19.70
2018-09-04T19:20:52.562Z,19.70
2018-09-04T19:23:21.710Z,19.50
2018-09-04T19:25:50.842Z,19.50
2018-09-04T19:28:19.953Z,19.40
2018-09-04T19:30:49.106Z,19.20
2018-09-04T19:36:19.001Z,19.00
2018-09-04T19:38:49.149Z,18.80
2018-09-04T19:41:18.314Z,18.80
2018-09-04T19:46:27.218Z,18.60
2018-09-04T19:48:56.427Z,18.30
2018-09-04T19:51:25.579Z,18.20
2018-09-04T19:53:57.753Z,18.20
2018-09-04T19:56:27.854Z,18.30
2018-09-04T19:58:57.031Z,18.20
2018-09-04T20:01:26.154Z,18.00
2018-09-04T20:04:01.534Z,17.70
2018-09-04T20:06:31.804Z,17.60
2018-09-04T20:09:01.137Z,17.60
2018-09-04T20:11:29.980Z,17.70
2018-09-04T20:13:59.131Z,17.70
2018-09-04T20:16:28.266Z,17.50
2018-09-04T20:18:57.401Z,17.30
2018-09-04T20:21:26.507Z,17.20
2018-09-04T20:23:55.669Z,17.20
2018-09-04T20:26:24.827Z,17.10
2018-09-04T20:28:54.006Z,17.10
2018-09-04T20:31:23.608Z,17.00
2018-09-04T20:33:53.632Z,16.90
2018-09-04T20:36:22.866Z,17.00
2018-09-04T20:38:52.690Z,17.00
2018-09-04T20:41:21.888Z,17.10
2018-09-04T20:43:51.633Z,17.10
2018-09-04T20:46:20.818Z,17.20
2018-09-04T20:48:50.010Z,17.40
2018-09-04T20:51:22.096Z,17.50
2018-09-04T20:53:51.262Z,17.50
2018-09-04T20:56:20.443Z,17.40
2018-09-04T20:59:06.495Z,17.30
2018-09-04T21:01:52.718Z,17.30
2018-09-04T21:04:33.466Z,17.10
2018-09-04T21:09:42.681Z,17.00
2018-09-04T21:12:11.807Z,16.80
2018-09-04T21:14:41.758Z,16.70
2018-09-04T21:17:10.895Z,16.70
2018-09-04T21:19:40.025Z,16.60
2018-09-04T21:22:09.170Z,16.70
2018-09-04T21:24:38.413Z,16.60
2018-09-04T21:27:07.554Z,16.40
2018-09-04T21:29:37.134Z,16.20
2018-09-04T21:32:06.348Z,16.20
2018-09-04T21:34:35.499Z,16.20
2018-09-04T21:37:04.777Z,16.30
2018-09-04T21:39:33.924Z,16.30
2018-09-04T21:42:03.062Z,16.30
2018-09-04T21:44:32.214Z,16.10
2018-09-04T21:47:01.333Z,16.00
2018-09-04T21:49:30.442Z,16.00
2018-09-04T21:51:59.634Z,16.00
2018-09-04T21:54:28.758Z,15.90
2018-09-04T21:56:57.885Z,16.00
2018-09-04T21:59:27.274Z,16.10
2018-09-04T22:01:56.617Z,16.20
2018-09-04T22:04:25.774Z,16.20
2018-09-04T22:06:55.002Z,16.00
2018-09-04T22:09:24.142Z,15.80
2018-09-04T22:11:53.350Z,15.60
2018-09-04T22:14:23.278Z,15.60
2018-09-04T22:16:52.403Z,15.70
2018-09-04T22:19:21.098Z,15.60
2018-09-04T22:21:50.422Z,15.50
2018-09-04T22:24:19.546Z,15.40
2018-09-04T22:26:48.716Z,15.30
2018-09-04T22:29:17.893Z,15.20
2018-09-04T22:31:47.021Z,15.20
2018-09-04T22:34:16.158Z,15.30
2018-09-04T22:36:45.441Z,15.20
2018-09-04T22:39:14.584Z,15.20
2018-09-04T22:41:43.698Z,15.20
2018-09-04T22:44:13.242Z,15.40
2018-09-04T22:46:42.387Z,15.60
2018-09-04T22:49:11.501Z,15.60
2018-09-04T22:51:41.039Z,15.50
2018-09-04T22:54:10.186Z,15.30
2018-09-04T22:56:39.617Z,15.20
2018-09-04T22:59:08.758Z,15.20
2018-09-04T23:01:38.068Z,15.30
2018-09-04T23:04:07.271Z,15.20
2018-09-04T23:06:36.527Z,15.20
2018-09-04T23:09:08.187Z,15.10
2018-09-04T23:11:37.326Z,15.30
2018-09-04T23:14:06.469Z,15.30
2018-09-04T23:16:35.637Z,15.30
2018-09-04T23:19:05.007Z,15.20
2018-09-04T23:21:34.133Z,15.10
2018-09-04T23:24:03.271Z,15.20
2018-09-04T23:26:32.985Z,15.20
2018-09-04T23:29:02.162Z,15.10
2018-09-04T23:31:31.329Z,14.90
2018-09-04T23:34:00.453Z,14.80
2018-09-04T23:36:29.662Z,14.90
2018-09-04T23:38:58.833Z,14.80
2018-09-04T23:41:27.963Z,14.90
2018-09-04T23:43:57.509Z,14.90
2018-09-04T23:46:26.650Z,14.90
2018-09-04T23:48:56.602Z,14.80
2018-09-04T23:51:25.714Z,14.80
2018-09-04T23:53:55.955Z,14.80
2018-09-04T23:56:25.074Z,14.80
2018-09-04T23:58:54.224Z,14.80
